createdAt,value
2022-08-28T00:00:47.846Z,30.74
2022-08-28T00:03:17.511Z,30.77
2022-08-28T00:05:47.077Z,30.77
2022-08-28T00:08:18.227Z,30.76
2022-08-28T00:10:47.422Z,30.68
2022-08-28T00:13:19.933Z,30.74
2022-08-28T00:15:52.584Z,30.71
2022-08-28T00:18:21.920Z,30.80
2022-08-28T00:20:52.938Z,30.68
2022-08-28T00:23:22.866Z,30.67
2022-08-28T00:25:52.490Z,30.64
2022-08-28T00:28:24.294Z,30.63
2022-08-28T00:30:56.903Z,30.64
2022-08-28T00:33:30.827Z,30.79
2022-08-28T00:36:00.421Z,30.55
2022-08-28T00:38:30.680Z,30.57
2022-08-28T00:41:04.930Z,30.56
2022-08-28T00:43:34.789Z,30.58
2022-08-28T00:46:06.156Z,30.63
2022-08-28T00:48:35.249Z,30.57
2022-08-28T00:51:25.534Z,30.67
2022-08-28T00:53:58.742Z,30.72
2022-08-28T00:56:30.633Z,30.74
2022-08-28T00:59:07.459Z,30.87
2022-08-28T01:01:36.791Z,30.79
2022-08-28T01:04:07.279Z,30.79
2022-08-28T01:06:37.953Z,30.84
2022-08-28T01:09:07.438Z,30.82
2022-08-28T01:11:36.818Z,30.84
2022-08-28T01:14:07.028Z,30.87
2022-08-28T01:16:37.787Z,30.92
2022-08-28T01:19:11.174Z,30.96
2022-08-28T01:22:13.950Z,31.13
2022-08-28T01:24:43.892Z,31.02
2022-08-28T01:27:13.597Z,31.02
2022-08-28T01:29:42.471Z,31.08
2022-08-28T01:32:35.398Z,31.24
2022-08-28T01:35:05.808Z,31.18
2022-08-28T01:37:34.926Z,31.14
2022-08-28T01:40:05.515Z,31.19
2022-08-28T01:42:44.959Z,31.29
2022-08-28T01:45:17.466Z,31.30
2022-08-28T01:47:47.758Z,31.29
2022-08-28T01:50:22.994Z,31.28
2022-08-28T01:52:52.027Z,31.25
2022-08-28T01:55:21.575Z,31.30
2022-08-28T01:57:54.925Z,31.38
2022-08-28T02:00:28.532Z,31.41
2022-08-28T02:03:00.090Z,31.49
2022-08-28T02:05:32.038Z,31.45
2022-08-28T02:08:04.011Z,31.57
2022-08-28T02:10:34.794Z,31.72
2022-08-28T02:13:05.030Z,31.57
2022-08-28T02:15:36.716Z,31.59
2022-08-28T02:18:07.321Z,31.60
2022-08-28T02:20:36.664Z,31.43
2022-08-28T02:23:07.002Z,31.58
2022-08-28T02:25:38.447Z,31.70
2022-08-28T02:28:07.933Z,31.70
2022-08-28T02:30:37.995Z,31.76
2022-08-28T02:33:07.483Z,31.83
2022-08-28T02:35:36.579Z,31.89
2022-08-28T02:38:05.634Z,31.92
2022-08-28T02:40:34.668Z,31.94
2022-08-28T02:43:03.646Z,31.94
2022-08-28T02:45:32.777Z,31.98
2022-08-28T02:48:03.158Z,32.03
2022-08-28T02:50:32.940Z,32.06
2022-08-28T02:53:02.229Z,32.19
2022-08-28T02:55:34.276Z,32.17
2022-08-28T02:58:03.597Z,32.34
2022-08-28T03:00:32.603Z,32.36
2022-08-28T03:03:01.606Z,32.40
2022-08-28T03:05:30.739Z,32.35
2022-08-28T03:08:00.041Z,32.50
2022-08-28T03:10:29.256Z,32.44
2022-08-28T03:12:58.489Z,32.54
2022-08-28T03:15:27.522Z,32.58
2022-08-28T03:17:56.441Z,32.61
2022-08-28T03:20:25.606Z,32.73
2022-08-28T03:23:12.567Z,32.66
2022-08-28T03:25:41.825Z,32.71
2022-08-28T03:28:10.766Z,32.73
2022-08-28T03:30:39.978Z,32.83
2022-08-28T03:33:09.040Z,32.84
2022-08-28T03:35:41.042Z,32.91
2022-08-28T03:38:12.356Z,33.05
2022-08-28T03:40:47.260Z,33.22
2022-08-28T03:43:19.824Z,33.17
2022-08-28T03:46:00.676Z,33.30
2022-08-28T03:48:34.238Z,33.33
2022-08-28T03:51:07.615Z,33.40
2022-08-28T03:53:38.275Z,33.46
2022-08-28T03:56:09.860Z,33.55
2022-08-28T03:58:40.615Z,33.48
2022-08-28T04:01:10.001Z,33.57
2022-08-28T04:03:39.151Z,33.71
2022-08-28T04:06:08.878Z,33.76
2022-08-28T04:08:37.789Z,33.75
2022-08-28T04:11:07.406Z,33.80
2022-08-28T04:13:36.218Z,33.89
2022-08-28T04:16:13.243Z,34.05
2022-08-28T04:18:44.131Z,34.04
2022-08-28T04:21:22.765Z,34.14
2022-08-28T04:23:52.483Z,34.20
2022-08-28T04:26:24.452Z,34.25
2022-08-28T04:28:55.138Z,34.21
2022-08-28T04:31:31.841Z,34.15
2022-08-28T04:34:03.432Z,34.12
2022-08-28T04:36:34.225Z,33.95
2022-08-28T04:39:06.393Z,34.26
2022-08-28T04:41:38.714Z,34.37
2022-08-28T04:44:08.726Z,34.66
2022-08-28T04:46:38.763Z,34.75
2022-08-28T04:49:07.596Z,34.88
2022-08-28T04:51:40.081Z,34.67
2022-08-28T04:54:14.215Z,34.46
2022-08-28T04:56:43.309Z,34.45
2022-08-28T04:59:13.241Z,34.49
2022-08-28T05:01:44.024Z,34.46
2022-08-28T05:04:14.112Z,34.69
2022-08-28T05:06:47.848Z,34.89
2022-08-28T05:09:19.635Z,34.85
2022-08-28T05:11:50.413Z,34.68
2022-08-28T05:14:21.046Z,34.45
2022-08-28T05:16:53.934Z,34.43
2022-08-28T05:19:23.914Z,34.36
2022-08-28T05:21:54.070Z,34.24
2022-08-28T05:24:23.391Z,34.04
2022-08-28T05:26:52.325Z,34.19
2022-08-28T05:29:21.926Z,34.12
2022-08-28T05:31:54.239Z,34.09
2022-08-28T05:34:23.784Z,34.12
2022-08-28T05:36:52.715Z,34.03
2022-08-28T05:39:22.230Z,34.09
2022-08-28T05:41:51.335Z,34.13
2022-08-28T05:44:22.027Z,34.03
2022-08-28T05:46:51.941Z,33.97
2022-08-28T05:49:21.052Z,34.13
2022-08-28T05:51:50.981Z,34.13
2022-08-28T05:54:20.484Z,34.10
2022-08-28T05:56:49.644Z,34.13
2022-08-28T05:59:19.181Z,34.11
2022-08-28T06:01:50.609Z,34.18
2022-08-28T06:04:26.225Z,34.12
2022-08-28T06:06:56.195Z,34.15
2022-08-28T06:09:29.788Z,34.20
2022-08-28T06:12:02.152Z,34.29
2022-08-28T06:14:32.685Z,34.37
2022-08-28T06:17:02.910Z,34.49
2022-08-28T06:19:36.316Z,34.47
2022-08-28T06:22:07.896Z,34.39
2022-08-28T06:24:38.206Z,34.39
2022-08-28T06:27:07.382Z,34.31
2022-08-28T06:29:36.636Z,34.42
2022-08-28T06:32:06.102Z,34.51
2022-08-28T06:34:35.546Z,34.52
2022-08-28T06:37:04.831Z,34.41
2022-08-28T06:39:33.713Z,34.40
2022-08-28T06:42:03.190Z,34.34
2022-08-28T06:44:33.390Z,34.37
2022-08-28T06:47:05.130Z,34.31
2022-08-28T06:49:35.424Z,34.21
2022-08-28T06:52:04.704Z,34.28
2022-08-28T06:54:33.640Z,34.29
2022-08-28T06:57:03.171Z,34.23
2022-08-28T06:59:32.232Z,34.07
2022-08-28T07:02:01.362Z,34.02
2022-08-28T07:04:30.914Z,34.08
2022-08-28T07:06:59.772Z,33.98
2022-08-28T07:09:28.908Z,34.02
2022-08-28T07:11:58.284Z,34.02
2022-08-28T07:14:27.320Z,33.92
2022-08-28T07:16:57.915Z,33.82
2022-08-28T07:19:27.746Z,33.87
2022-08-28T07:21:56.866Z,33.96
2022-08-28T07:24:25.909Z,33.92
2022-08-28T07:26:55.491Z,33.89
2022-08-28T07:29:24.516Z,33.80
2022-08-28T07:31:57.317Z,33.92
2022-08-28T07:34:27.381Z,33.86
2022-08-28T07:36:59.315Z,33.86
2022-08-28T07:39:28.516Z,33.94
2022-08-28T07:41:57.599Z,34.09
2022-08-28T07:44:45.259Z,34.15
2022-08-28T07:47:14.556Z,34.15
2022-08-28T07:49:43.839Z,34.16
2022-08-28T07:52:13.964Z,34.13
2022-08-28T07:54:43.217Z,34.23
2022-08-28T07:57:12.714Z,34.41
2022-08-28T07:59:43.866Z,34.46
2022-08-28T08:02:13.639Z,34.42
2022-08-28T08:04:43.138Z,34.52
2022-08-28T08:07:14.487Z,34.42
2022-08-28T08:09:45.292Z,34.66
2022-08-28T08:12:16.611Z,34.90
2022-08-28T08:14:46.629Z,34.69
2022-08-28T08:17:16.158Z,34.74
2022-08-28T08:19:45.267Z,34.90
2022-08-28T08:22:15.026Z,35.25
2022-08-28T08:24:44.295Z,35.13
2022-08-28T08:27:13.375Z,34.95
2022-08-28T08:29:42.791Z,34.69
2022-08-28T08:32:13.295Z,34.92
2022-08-28T08:34:47.539Z,35.15
2022-08-28T08:37:16.934Z,35.07
2022-08-28T08:39:45.987Z,35.05
2022-08-28T08:42:31.727Z,34.94
2022-08-28T08:45:05.206Z,34.88
2022-08-28T08:47:53.262Z,34.99
2022-08-28T08:50:26.623Z,35.05
2022-08-28T08:53:21.991Z,35.09
2022-08-28T08:55:53.751Z,35.21
2022-08-28T08:58:42.010Z,35.44
2022-08-28T09:01:38.705Z,35.51
2022-08-28T09:04:32.445Z,35.77
2022-08-28T09:07:17.881Z,35.69
2022-08-28T09:09:52.314Z,35.49
2022-08-28T09:12:30.875Z,35.63
2022-08-28T09:15:11.781Z,35.54
2022-08-28T09:17:49.081Z,35.22
2022-08-28T09:20:32.899Z,34.96
2022-08-28T09:23:02.331Z,34.72
2022-08-28T09:26:01.884Z,34.73
2022-08-28T09:28:38.678Z,34.59
2022-08-28T09:31:19.559Z,34.58
2022-08-28T09:33:52.457Z,34.43
2022-08-28T09:36:26.960Z,34.22
2022-08-28T09:39:23.100Z,34.12
2022-08-28T09:42:23.430Z,34.17
2022-08-28T09:45:09.435Z,34.01
2022-08-28T09:47:47.351Z,34.04
2022-08-28T09:50:43.631Z,34.30
2022-08-28T09:53:12.685Z,33.79
2022-08-28T09:56:13.082Z,34.00
2022-08-28T09:58:55.744Z,34.02
2022-08-28T10:01:44.648Z,33.97
2022-08-28T10:04:35.899Z,34.00
2022-08-28T10:07:38.755Z,33.99
2022-08-28T10:10:10.940Z,33.92
2022-08-28T10:13:03.987Z,34.01
2022-08-28T10:15:50.820Z,34.03
2022-08-28T10:18:47.304Z,33.83
2022-08-28T10:21:36.653Z,33.65
2022-08-28T10:24:30.914Z,33.55
2022-08-28T10:27:35.469Z,33.45
2022-08-28T10:30:13.385Z,33.35
2022-08-28T10:33:16.906Z,33.38
2022-08-28T10:35:55.271Z,33.31
2022-08-28T10:38:41.629Z,32.97
2022-08-28T10:41:34.044Z,32.70
2022-08-28T10:44:05.362Z,32.72
2022-08-28T10:46:45.845Z,32.66
2022-08-28T10:49:41.022Z,32.33
2022-08-28T10:52:24.017Z,32.30
2022-08-28T10:55:45.648Z,31.88
2022-08-28T10:58:24.424Z,31.48
2022-08-28T11:01:03.295Z,31.24
2022-08-28T11:03:42.004Z,30.91
2022-08-28T11:06:31.542Z,30.93
2022-08-28T11:09:25.984Z,30.69
2022-08-28T11:12:05.408Z,30.87
2022-08-28T11:14:47.551Z,30.91
2022-08-28T11:17:26.682Z,30.89
2022-08-28T11:20:09.915Z,30.78
2022-08-28T11:22:53.942Z,30.83
2022-08-28T11:25:32.592Z,30.98
2022-08-28T11:28:37.102Z,31.06
2022-08-28T11:31:06.676Z,31.12
2022-08-28T11:33:43.592Z,31.29
2022-08-28T11:36:21.714Z,31.02
2022-08-28T11:38:54.063Z,31.24
2022-08-28T11:41:30.928Z,31.57
2022-08-28T11:44:15.063Z,31.42
2022-08-28T11:46:50.006Z,31.18
2022-08-28T11:49:30.958Z,31.28
2022-08-28T11:52:26.336Z,31.39
2022-08-28T11:55:25.745Z,31.46
2022-08-28T12:01:09.553Z,31.20
2022-08-28T12:03:55.967Z,31.43
2022-08-28T12:06:48.997Z,31.69
2022-08-28T12:09:38.833Z,31.64
2022-08-28T12:12:14.681Z,31.64
2022-08-28T12:14:44.003Z,31.66
2022-08-28T12:17:29.172Z,31.82
2022-08-28T12:20:17.481Z,31.88
2022-08-28T12:22:51.396Z,31.62
2022-08-28T12:25:43.330Z,31.78
2022-08-28T12:28:23.861Z,31.81
2022-08-28T12:31:10.868Z,31.79
2022-08-28T12:33:47.752Z,31.66
2022-08-28T12:36:20.096Z,31.83
2022-08-28T12:38:53.553Z,31.95
2022-08-28T12:41:25.527Z,31.78
2022-08-28T12:43:58.568Z,31.70
2022-08-28T12:46:38.537Z,31.74
2022-08-28T12:49:33.020Z,31.78
2022-08-28T12:52:16.676Z,31.79
2022-08-28T12:54:51.345Z,31.77
2022-08-28T12:57:23.950Z,31.67
2022-08-28T12:59:57.542Z,31.64
2022-08-28T13:02:34.741Z,31.52
2022-08-28T13:05:08.812Z,31.64
2022-08-28T13:07:48.653Z,31.68
2022-08-28T13:10:25.668Z,31.58
2022-08-28T13:13:29.605Z,31.64
2022-08-28T13:16:10.782Z,31.51
2022-08-28T13:18:56.455Z,31.44
2022-08-28T13:21:34.473Z,31.38
2022-08-28T13:24:24.803Z,31.47
2022-08-28T13:27:18.231Z,31.54
2022-08-28T13:29:57.368Z,31.47
2022-08-28T13:32:32.028Z,31.21
2022-08-28T13:35:19.500Z,31.41
2022-08-28T13:37:51.797Z,31.39
2022-08-28T13:40:55.961Z,31.53
2022-08-28T13:43:13.205Z,31.30
2022-08-28T13:45:45.612Z,31.32
2022-08-28T13:48:17.290Z,31.25
2022-08-28T13:50:48.901Z,31.28
2022-08-28T13:53:20.659Z,31.09
2022-08-28T13:55:51.575Z,31.14
2022-08-28T13:58:20.960Z,31.18
2022-08-28T14:00:51.995Z,31.31
2022-08-28T14:03:37.499Z,31.26
2022-08-28T14:06:15.186Z,31.21
2022-08-28T14:08:46.672Z,31.24
2022-08-28T14:11:16.970Z,31.25
2022-08-28T14:13:55.526Z,31.18
2022-08-28T14:16:27.122Z,31.25
2022-08-28T14:18:56.575Z,31.21
2022-08-28T14:21:25.560Z,31.20
2022-08-28T14:23:54.727Z,31.20
2022-08-28T14:26:24.160Z,31.06
2022-08-28T14:28:53.381Z,31.08
2022-08-28T14:31:26.304Z,31.16
2022-08-28T14:33:57.783Z,31.19
2022-08-28T14:36:31.414Z,31.19
2022-08-28T14:39:06.054Z,31.20
2022-08-28T14:41:36.369Z,31.07
2022-08-28T14:44:06.323Z,31.18
2022-08-28T14:46:38.228Z,31.14
2022-08-28T14:49:11.175Z,31.31
2022-08-28T14:51:42.636Z,31.29
2022-08-28T14:54:13.997Z,31.23
2022-08-28T14:56:45.388Z,31.27
2022-08-28T14:59:23.643Z,31.38
2022-08-28T15:01:56.247Z,31.39
2022-08-28T15:04:27.030Z,31.44
2022-08-28T15:07:01.182Z,31.56
2022-08-28T15:09:30.831Z,31.42
2022-08-28T15:11:59.812Z,31.47
2022-08-28T15:14:29.219Z,31.50
2022-08-28T15:16:58.323Z,31.43
2022-08-28T15:19:27.507Z,31.50
2022-08-28T15:21:58.234Z,31.55
2022-08-28T15:24:31.961Z,31.58
2022-08-28T15:27:01.665Z,31.54
2022-08-28T15:29:31.203Z,31.52
2022-08-28T15:32:01.885Z,31.47
2022-08-28T15:34:31.740Z,31.26
2022-08-28T15:37:00.836Z,31.20
2022-08-28T15:39:50.564Z,31.19
2022-08-28T15:42:19.943Z,31.28
2022-08-28T15:45:07.549Z,31.27
2022-08-28T15:47:38.152Z,31.18
2022-08-28T15:50:08.088Z,31.27
2022-08-28T15:52:40.437Z,31.25
2022-08-28T15:55:11.927Z,31.14
2022-08-28T15:57:41.137Z,31.23
2022-08-28T16:00:11.000Z,31.35
2022-08-28T16:02:40.818Z,31.32
2022-08-28T16:05:10.835Z,31.22
2022-08-28T16:07:41.083Z,31.13
2022-08-28T16:10:14.331Z,31.26
2022-08-28T16:12:43.787Z,31.25
2022-08-28T16:15:21.101Z,31.33
2022-08-28T16:17:50.566Z,31.33
2022-08-28T16:20:19.762Z,31.33
2022-08-28T16:22:48.872Z,31.23
2022-08-28T16:25:18.256Z,31.17
2022-08-28T16:27:47.350Z,31.18
2022-08-28T16:30:17.248Z,31.22
2022-08-28T16:32:46.867Z,31.17
2022-08-28T16:35:17.948Z,31.17
2022-08-28T16:37:47.230Z,31.12
2022-08-28T16:40:16.329Z,31.11
2022-08-28T16:42:51.874Z,31.07
2022-08-28T16:45:21.849Z,31.03
2022-08-28T16:47:51.174Z,31.01
2022-08-28T16:50:20.839Z,30.91
2022-08-28T16:52:50.058Z,30.89
2022-08-28T16:55:19.813Z,30.98
2022-08-28T16:57:49.000Z,31.03
2022-08-28T17:00:18.688Z,31.06
2022-08-28T17:02:48.011Z,31.02
2022-08-28T17:05:20.911Z,31.05
2022-08-28T17:07:50.723Z,31.03
2022-08-28T17:10:23.356Z,31.04
2022-08-28T17:12:52.982Z,30.94
2022-08-28T17:15:23.639Z,30.92
2022-08-28T17:17:53.196Z,30.90
2022-08-28T17:20:40.897Z,30.74
2022-08-28T17:23:10.320Z,30.75
2022-08-28T17:25:39.311Z,30.82
2022-08-28T17:28:08.921Z,30.81
2022-08-28T17:30:38.133Z,30.85
2022-08-28T17:33:08.406Z,30.86
2022-08-28T17:35:40.286Z,30.86
2022-08-28T17:38:11.363Z,30.80
2022-08-28T17:40:40.788Z,30.72
2022-08-28T17:43:09.925Z,30.69
2022-08-28T17:45:39.048Z,30.77
2022-08-28T17:48:08.421Z,30.75
2022-08-28T17:50:37.478Z,30.72
2022-08-28T17:53:06.690Z,30.79
2022-08-28T17:55:36.217Z,30.78
2022-08-28T17:58:06.186Z,30.79
2022-08-28T18:00:36.133Z,30.78
2022-08-28T18:03:05.294Z,30.81
2022-08-28T18:05:35.322Z,30.87
2022-08-28T18:08:05.375Z,30.93
2022-08-28T18:10:36.276Z,30.93
2022-08-28T18:13:07.199Z,30.92
2022-08-28T18:15:36.868Z,30.93
2022-08-28T18:18:06.590Z,30.90
2022-08-28T18:20:35.804Z,30.89
2022-08-28T18:23:05.953Z,30.87
2022-08-28T18:25:50.539Z,30.86
2022-08-28T18:28:25.201Z,30.98
2022-08-28T18:30:55.440Z,30.97
2022-08-28T18:33:25.586Z,31.06
2022-08-28T18:35:55.507Z,30.95
2022-08-28T18:38:28.776Z,31.00
2022-08-28T18:40:58.043Z,30.94
2022-08-28T18:43:27.019Z,30.91
2022-08-28T18:45:56.239Z,30.96
2022-08-28T18:48:25.561Z,31.05
2022-08-28T18:50:54.713Z,30.96
2022-08-28T18:53:25.116Z,30.97
2022-08-28T18:55:56.134Z,30.94
2022-08-28T18:58:27.844Z,30.91
2022-08-28T19:00:57.083Z,30.91
2022-08-28T19:03:26.352Z,30.93
2022-08-28T19:05:57.305Z,30.91
2022-08-28T19:08:27.550Z,30.86
2022-08-28T19:10:56.824Z,30.80
2022-08-28T19:13:25.897Z,30.85
2022-08-28T19:15:55.296Z,30.87
2022-08-28T19:18:25.055Z,30.91
2022-08-28T19:21:04.331Z,30.91
2022-08-28T19:23:33.973Z,30.73
2022-08-28T19:26:03.748Z,30.71
2022-08-28T19:28:32.823Z,30.79
2022-08-28T19:31:02.432Z,30.74
2022-08-28T19:33:32.150Z,30.58
2022-08-28T19:36:02.090Z,30.64
2022-08-28T19:38:32.054Z,30.71
2022-08-28T19:41:01.324Z,30.71
2022-08-28T19:43:43.197Z,30.58
2022-08-28T19:46:19.773Z,30.65
2022-08-28T19:48:51.362Z,30.77
2022-08-28T19:51:23.640Z,30.85
2022-08-28T19:53:58.789Z,30.89
2022-08-28T19:56:35.648Z,30.81
2022-08-28T19:59:05.988Z,30.69
2022-08-28T20:01:38.892Z,30.73
2022-08-28T20:04:10.073Z,30.75
2022-08-28T20:06:39.345Z,30.80
2022-08-28T20:09:12.524Z,30.80
2022-08-28T20:11:45.363Z,30.91
2022-08-28T20:14:15.181Z,31.09
2022-08-28T20:16:46.509Z,30.92
2022-08-28T20:19:16.728Z,30.83
2022-08-28T20:21:48.258Z,30.83
2022-08-28T20:24:22.853Z,30.88
2022-08-28T20:26:53.365Z,30.79
2022-08-28T20:29:25.200Z,30.84
2022-08-28T20:31:55.247Z,30.81
2022-08-28T20:34:24.703Z,30.81
2022-08-28T20:36:55.104Z,30.83
2022-08-28T20:39:24.419Z,30.71
2022-08-28T20:41:53.721Z,30.59
2022-08-28T20:44:23.739Z,30.58
2022-08-28T20:46:53.742Z,30.71
2022-08-28T20:49:24.793Z,30.74
2022-08-28T20:51:54.119Z,30.69
2022-08-28T20:54:32.109Z,30.79
2022-08-28T20:57:04.790Z,30.76
2022-08-28T20:59:40.017Z,30.78
2022-08-28T21:02:15.547Z,30.87
2022-08-28T21:04:46.978Z,30.80
2022-08-28T21:07:18.165Z,30.74
2022-08-28T21:10:05.055Z,30.70
2022-08-28T21:12:38.803Z,30.68
2022-08-28T21:15:10.047Z,30.63
2022-08-28T21:17:39.496Z,30.60
2022-08-28T21:20:14.156Z,30.52
2022-08-28T21:22:43.914Z,30.38
2022-08-28T21:25:13.600Z,30.58
2022-08-28T21:27:43.515Z,30.69
2022-08-28T21:30:16.872Z,30.72
2022-08-28T21:32:46.701Z,30.67
2022-08-28T21:35:19.346Z,30.79
2022-08-28T21:37:50.017Z,30.75
2022-08-28T21:40:20.384Z,30.76
2022-08-28T21:42:49.754Z,30.76
2022-08-28T21:45:19.389Z,30.78
2022-08-28T21:47:48.751Z,30.84
2022-08-28T21:50:18.696Z,30.88
2022-08-28T21:52:47.886Z,30.88
2022-08-28T21:55:18.496Z,30.89
2022-08-28T21:57:47.648Z,30.84
2022-08-28T22:00:20.777Z,30.98
2022-08-28T22:02:50.830Z,30.95
2022-08-28T22:05:20.166Z,30.89
2022-08-28T22:07:49.168Z,30.94
2022-08-28T22:10:19.039Z,30.92
2022-08-28T22:12:48.156Z,30.91
2022-08-28T22:15:17.047Z,30.89
2022-08-28T22:17:46.542Z,30.93
2022-08-28T22:20:15.728Z,30.98
2022-08-28T22:23:02.864Z,30.99
2022-08-28T22:25:32.191Z,30.99
2022-08-28T22:28:11.620Z,31.06
2022-08-28T22:30:41.131Z,31.02
2022-08-28T22:33:11.810Z,31.03
2022-08-28T22:35:40.892Z,31.01
2022-08-28T22:38:12.327Z,31.01
2022-08-28T22:40:41.786Z,30.95
2022-08-28T22:43:10.874Z,30.92
2022-08-28T22:45:40.015Z,30.87
2022-08-28T22:48:09.316Z,30.96
2022-08-28T22:50:38.944Z,31.11
2022-08-28T22:53:07.984Z,31.09
2022-08-28T22:55:42.731Z,30.83
2022-08-28T22:58:14.521Z,30.90
2022-08-28T23:00:44.644Z,30.83
2022-08-28T23:03:13.878Z,31.01
2022-08-28T23:05:43.201Z,31.04
2022-08-28T23:08:12.401Z,30.99
2022-08-28T23:10:58.468Z,30.87
2022-08-28T23:13:29.210Z,30.81
2022-08-28T23:16:01.662Z,30.69
2022-08-28T23:18:46.263Z,30.63
2022-08-28T23:21:24.237Z,30.36
2022-08-28T23:23:56.645Z,30.21
2022-08-28T23:26:27.006Z,29.97
2022-08-28T23:28:56.208Z,29.96
2022-08-28T23:31:25.376Z,29.88
2022-08-28T23:33:54.405Z,29.58
2022-08-28T23:36:28.501Z,29.39
2022-08-28T23:38:57.665Z,29.26
2022-08-28T23:41:26.954Z,29.08
2022-08-28T23:43:56.540Z,28.92
2022-08-28T23:46:26.455Z,28.87
2022-08-28T23:48:55.604Z,28.82
2022-08-28T23:51:25.487Z,28.93
2022-08-28T23:53:55.537Z,28.94
2022-08-28T23:56:27.990Z,28.97
2022-08-28T23:58:57.464Z,28.81
